createdAt,value
2022-11-24T00:00:14.935Z,68.93
2022-11-24T00:02:48.455Z,61.03
2022-11-24T00:05:23.060Z,73.43
2022-11-24T00:07:56.543Z,73.30
2022-11-24T00:10:31.515Z,71.90
2022-11-24T00:13:04.987Z,76.32
2022-11-24T00:15:38.444Z,81.05
2022-11-24T00:18:11.972Z,72.70
2022-11-24T00:20:53.109Z,80.57
2022-11-24T00:23:26.941Z,76.05
2022-11-24T00:26:08.029Z,87.55
2022-11-24T00:28:42.484Z,80.28
2022-11-24T00:31:19.362Z,86.57
2022-11-24T00:33:55.203Z,84.65
2022-11-24T00:36:32.741Z,89.00
2022-11-24T00:39:08.751Z,80.30
2022-11-24T00:41:44.283Z,75.38
2022-11-24T00:44:17.756Z,84.60
2022-11-24T00:46:51.479Z,79.00
2022-11-24T00:49:27.558Z,76.22
2022-11-24T00:52:01.194Z,71.55
2022-11-24T00:54:35.096Z,79.35
2022-11-24T00:57:10.286Z,80.25
2022-11-24T00:59:43.788Z,79.75
2022-11-24T01:02:17.408Z,75.35
2022-11-24T01:04:51.046Z,74.10
2022-11-24T01:07:24.570Z,71.30
2022-11-24T01:09:58.139Z,70.95
2022-11-24T01:12:33.303Z,67.85
2022-11-24T01:15:07.869Z,65.22
2022-11-24T01:17:41.433Z,71.10
2022-11-24T01:20:15.118Z,69.40
2022-11-24T01:22:50.259Z,68.63
2022-11-24T01:25:23.795Z,74.97
2022-11-24T01:27:58.751Z,76.45
2022-11-24T01:30:32.262Z,74.53
2022-11-24T01:33:05.981Z,67.53
2022-11-24T01:35:41.042Z,72.45
2022-11-24T01:38:14.789Z,62.67
2022-11-24T01:40:51.278Z,67.55
2022-11-24T01:43:28.061Z,64.63
2022-11-24T01:46:08.022Z,68.35
2022-11-24T01:48:45.005Z,66.13
2022-11-24T01:51:23.845Z,69.68
2022-11-24T01:54:02.429Z,59.42
2022-11-24T01:56:40.251Z,65.65
2022-11-24T01:59:17.452Z,60.67
2022-11-24T02:01:53.247Z,57.38
2022-11-24T02:04:32.116Z,60.72
2022-11-24T02:07:08.785Z,58.83
2022-11-24T02:09:47.065Z,61.17
2022-11-24T02:12:20.612Z,62.47
2022-11-24T02:14:56.564Z,61.75
2022-11-24T02:17:30.115Z,63.50
2022-11-24T02:20:06.559Z,64.75
2022-11-24T02:22:49.188Z,62.72
2022-11-24T02:25:35.815Z,56.13
2022-11-24T02:28:15.421Z,58.47
2022-11-24T02:30:49.493Z,60.15
2022-11-24T02:35:58.978Z,57.25
2022-11-24T02:38:33.952Z,61.88
2022-11-24T02:41:11.342Z,55.88
2022-11-24T02:43:51.303Z,62.92
2022-11-24T02:46:25.013Z,60.25
2022-11-24T02:48:58.727Z,56.55
2022-11-24T02:51:34.558Z,62.00
2022-11-24T02:54:08.182Z,57.22
2022-11-24T02:56:41.809Z,59.05
2022-11-24T02:59:16.729Z,60.05
2022-11-24T03:01:53.057Z,62.35
2022-11-24T03:04:26.626Z,60.38
2022-11-24T03:07:00.212Z,66.47
2022-11-24T03:09:35.992Z,50.58
2022-11-24T03:12:09.640Z,55.15
2022-11-24T03:14:44.470Z,55.53
2022-11-24T03:17:18.047Z,66.07
2022-11-24T03:19:51.607Z,57.35
2022-11-24T03:22:25.197Z,54.17
2022-11-24T03:24:58.944Z,59.17
2022-11-24T03:27:32.911Z,50.42
2022-11-24T03:30:09.508Z,52.97
2022-11-24T03:32:43.277Z,48.97
2022-11-24T03:35:16.983Z,47.40
2022-11-24T03:40:24.092Z,41.70
2022-11-24T03:42:57.740Z,46.00
2022-11-24T03:45:48.057Z,48.28
2022-11-24T03:48:22.459Z,45.92
2022-11-24T03:50:57.310Z,43.33
2022-11-24T03:53:32.209Z,53.83
2022-11-24T03:56:07.043Z,53.50
2022-11-24T03:58:40.582Z,43.28
2022-11-24T04:01:15.583Z,51.63
2022-11-24T04:03:49.079Z,50.70
2022-11-24T04:06:22.636Z,43.80
2022-11-24T04:08:56.283Z,45.50
2022-11-24T04:11:47.321Z,47.03
2022-11-24T04:14:21.166Z,44.08
2022-11-24T04:16:56.033Z,40.28
2022-11-24T04:19:29.692Z,47.95
2022-11-24T04:22:03.284Z,40.13
2022-11-24T04:24:36.950Z,40.78
2022-11-24T04:27:10.419Z,43.33
2022-11-24T04:29:43.957Z,47.55
2022-11-24T04:32:19.209Z,47.47
2022-11-24T04:34:52.746Z,47.38
2022-11-24T04:37:26.359Z,45.30
2022-11-24T04:39:59.962Z,64.30
2022-11-24T04:42:33.579Z,54.00
2022-11-24T04:45:08.583Z,51.33
2022-11-24T04:47:43.656Z,48.50
2022-11-24T04:50:17.863Z,42.30
2022-11-24T04:52:51.538Z,40.97
2022-11-24T04:55:25.049Z,47.58
2022-11-24T04:57:58.697Z,47.45
2022-11-24T05:00:35.262Z,39.80
2022-11-24T05:03:10.442Z,41.28
2022-11-24T05:05:44.127Z,45.08
2022-11-24T05:08:17.752Z,50.40
2022-11-24T05:10:51.324Z,40.08
2022-11-24T05:13:25.392Z,43.50
2022-11-24T05:18:35.321Z,37.83
2022-11-24T05:21:08.922Z,41.90
2022-11-24T05:23:42.598Z,40.85
2022-11-24T05:26:16.235Z,39.25
2022-11-24T05:28:49.942Z,36.10
2022-11-24T05:31:23.568Z,37.17
2022-11-24T05:33:58.563Z,41.17
2022-11-24T05:36:49.798Z,41.05
2022-11-24T05:39:24.116Z,34.85
2022-11-24T05:41:57.555Z,33.42
2022-11-24T05:44:31.468Z,34.58
2022-11-24T05:47:05.234Z,35.92
2022-11-24T05:49:40.383Z,30.83
2022-11-24T05:52:14.262Z,33.05
2022-11-24T05:54:47.938Z,35.88
2022-11-24T05:57:21.519Z,30.45
2022-11-24T05:59:55.106Z,28.75
2022-11-24T06:02:28.959Z,28.05
2022-11-24T06:07:37.396Z,32.38
2022-11-24T06:10:11.392Z,28.52
2022-11-24T06:12:44.887Z,31.08
2022-11-24T06:15:18.794Z,27.27
2022-11-24T06:17:56.394Z,29.98
2022-11-24T06:20:32.891Z,31.08
2022-11-24T06:23:07.023Z,28.27
2022-11-24T06:25:41.030Z,28.77
2022-11-24T06:28:14.435Z,28.77
2022-11-24T06:30:48.467Z,25.92
2022-11-24T06:33:22.002Z,27.25
2022-11-24T06:36:02.368Z,29.83
2022-11-24T06:38:37.149Z,28.50
2022-11-24T06:41:14.902Z,24.98
2022-11-24T06:43:48.561Z,30.50
2022-11-24T06:46:22.684Z,25.95
2022-11-24T06:51:30.989Z,26.73
2022-11-24T06:54:08.441Z,28.55
2022-11-24T06:56:41.997Z,23.30
2022-11-24T06:59:20.342Z,26.15
2022-11-24T07:01:54.169Z,29.88
2022-11-24T07:04:27.649Z,23.77
2022-11-24T07:07:03.752Z,27.60
2022-11-24T07:09:37.328Z,25.67
2022-11-24T07:12:10.818Z,27.45
2022-11-24T07:14:44.526Z,25.58
2022-11-24T07:17:18.189Z,24.90
2022-11-24T07:19:51.787Z,25.15
2022-11-24T07:22:27.096Z,26.17
2022-11-24T07:25:00.881Z,25.05
2022-11-24T07:27:35.106Z,29.85
2022-11-24T07:30:12.741Z,25.67
2022-11-24T07:32:46.400Z,25.15
2022-11-24T07:35:20.074Z,23.08
2022-11-24T07:37:57.743Z,31.38
2022-11-24T07:40:31.424Z,30.08
2022-11-24T07:43:05.015Z,24.63
2022-11-24T07:45:39.008Z,25.33
2022-11-24T07:50:49.911Z,26.05
2022-11-24T07:53:27.811Z,23.20
2022-11-24T07:56:03.141Z,22.02
2022-11-24T07:58:41.063Z,22.48
2022-11-24T08:01:19.151Z,24.75
2022-11-24T08:03:52.795Z,23.50
2022-11-24T08:06:40.854Z,24.88
2022-11-24T08:09:22.102Z,24.77
2022-11-24T08:11:58.618Z,25.02
2022-11-24T08:14:32.427Z,24.70
2022-11-24T08:19:39.638Z,26.00
2022-11-24T08:22:13.281Z,26.88
2022-11-24T08:24:49.390Z,21.85
2022-11-24T08:27:23.172Z,22.40
2022-11-24T08:30:01.085Z,25.67
2022-11-24T08:32:34.726Z,25.77
2022-11-24T08:35:14.723Z,21.60
2022-11-24T08:37:51.426Z,28.42
2022-11-24T08:40:26.732Z,23.48
2022-11-24T08:43:00.277Z,23.20
2022-11-24T08:45:39.727Z,35.03
2022-11-24T08:48:14.845Z,22.92
2022-11-24T08:50:48.642Z,22.45
2022-11-24T08:53:22.368Z,23.17
2022-11-24T08:56:03.026Z,23.65
2022-11-24T08:58:37.564Z,26.02
2022-11-24T09:01:14.235Z,26.75
2022-11-24T09:03:51.159Z,21.88
2022-11-24T09:06:27.176Z,23.83
2022-11-24T09:09:01.199Z,26.15
2022-11-24T09:11:36.644Z,23.08
2022-11-24T09:14:10.264Z,25.48
2022-11-24T09:16:44.025Z,25.27
2022-11-24T09:19:17.575Z,28.30
2022-11-24T09:21:51.651Z,23.67
2022-11-24T09:24:25.505Z,26.85
2022-11-24T09:27:03.098Z,27.73
2022-11-24T09:29:36.888Z,23.25
2022-11-24T09:34:46.805Z,25.48
2022-11-24T09:37:20.624Z,28.60
2022-11-24T09:39:54.244Z,27.10
2022-11-24T09:42:39.066Z,25.50
2022-11-24T09:45:41.626Z,31.63
2022-11-24T09:48:25.706Z,30.40
2022-11-24T09:51:02.193Z,32.88
2022-11-24T09:53:39.408Z,32.95
2022-11-24T09:56:23.911Z,28.65
2022-11-24T09:59:04.129Z,30.35
2022-11-24T10:01:43.559Z,33.88
2022-11-24T10:04:21.073Z,34.67
2022-11-24T10:07:02.961Z,29.38
2022-11-24T10:09:57.382Z,30.27
2022-11-24T10:12:51.316Z,29.67
2022-11-24T10:15:32.686Z,31.42
2022-11-24T10:18:38.361Z,29.13
2022-11-24T10:21:29.618Z,28.98
2022-11-24T10:24:24.716Z,29.42
2022-11-24T10:27:04.028Z,31.05
2022-11-24T10:29:42.268Z,33.15
2022-11-24T10:32:20.595Z,27.30
2022-11-24T10:34:57.394Z,29.90
2022-11-24T10:37:36.704Z,32.92
2022-11-24T10:40:55.487Z,26.48
2022-11-24T10:43:17.881Z,32.95
2022-11-24T10:45:52.116Z,26.73
2022-11-24T10:48:30.393Z,26.45
2022-11-24T10:51:40.510Z,24.77
2022-11-24T10:54:18.312Z,39.42
2022-11-24T10:56:57.214Z,34.33
2022-11-24T10:59:38.820Z,28.25
2022-11-24T11:02:34.489Z,29.35
2022-11-24T11:05:38.148Z,28.40
2022-11-24T11:08:21.297Z,29.92
2022-11-24T11:11:16.007Z,26.88
2022-11-24T11:14:01.563Z,25.33
2022-11-24T11:16:38.488Z,26.85
2022-11-24T11:19:48.820Z,29.02
2022-11-24T11:22:31.451Z,24.15
2022-11-24T11:25:16.185Z,25.83
2022-11-24T11:27:50.353Z,21.48
2022-11-24T11:36:19.575Z,26.27
2022-11-24T11:38:55.206Z,24.92
2022-11-24T11:41:33.843Z,27.38
2022-11-24T11:44:18.807Z,27.20
2022-11-24T11:46:53.013Z,22.48
2022-11-24T11:49:26.779Z,26.02
2022-11-24T11:52:19.726Z,27.60
2022-11-24T11:55:14.989Z,24.13
2022-11-24T11:57:56.495Z,28.50
2022-11-24T12:00:35.360Z,28.50
2022-11-24T12:03:43.327Z,26.15
2022-11-24T12:06:30.234Z,27.83
2022-11-24T12:09:21.041Z,27.33
2022-11-24T12:12:14.469Z,25.20
2022-11-24T12:15:08.965Z,22.27
2022-11-24T12:17:49.174Z,25.33
2022-11-24T12:20:38.801Z,24.27
2022-11-24T12:23:23.941Z,27.08
2022-11-24T12:26:08.446Z,27.25
2022-11-24T12:28:53.930Z,28.02
2022-11-24T12:31:33.879Z,26.50
2022-11-24T12:34:25.584Z,21.17
2022-11-24T12:37:14.070Z,24.83
2022-11-24T12:39:54.924Z,20.35
2022-11-24T12:42:40.343Z,27.98
2022-11-24T12:45:17.990Z,23.55
2022-11-24T12:48:20.038Z,25.33
2022-11-24T12:51:01.836Z,25.15
2022-11-24T12:53:38.344Z,19.27
2022-11-24T12:56:15.828Z,24.65
2022-11-24T12:58:53.977Z,23.02
2022-11-24T13:01:38.459Z,21.88
2022-11-24T13:04:20.180Z,23.35
2022-11-24T13:07:01.287Z,27.77
2022-11-24T13:09:34.961Z,24.25
2022-11-24T13:12:14.222Z,23.17
2022-11-24T13:14:50.191Z,27.63
2022-11-24T13:17:36.344Z,26.67
2022-11-24T13:20:27.537Z,24.83
2022-11-24T13:23:03.645Z,24.10
2022-11-24T13:25:38.080Z,24.98
2022-11-24T13:29:01.764Z,26.50
2022-11-24T13:31:41.350Z,22.13
2022-11-24T13:37:31.327Z,24.67
2022-11-24T13:40:59.850Z,23.52
2022-11-24T13:43:38.079Z,23.98
2022-11-24T13:46:11.967Z,32.08
2022-11-24T13:49:01.324Z,27.52
2022-11-24T13:51:35.207Z,26.70
2022-11-24T13:54:12.493Z,26.40
2022-11-24T13:56:46.301Z,25.60
2022-11-24T13:59:29.888Z,32.03
2022-11-24T14:02:19.722Z,28.23
2022-11-24T14:04:53.381Z,26.92
2022-11-24T14:07:27.262Z,29.42
2022-11-24T14:10:03.729Z,33.83
2022-11-24T14:12:37.510Z,28.35
2022-11-24T14:15:26.577Z,28.70
2022-11-24T14:18:00.538Z,30.30
2022-11-24T14:20:34.203Z,31.33
2022-11-24T14:23:11.579Z,32.35
2022-11-24T14:25:50.997Z,25.83
2022-11-24T14:28:27.303Z,27.55
2022-11-24T14:31:22.086Z,31.90
2022-11-24T14:34:16.546Z,29.98
2022-11-24T14:36:50.839Z,31.77
2022-11-24T14:39:26.293Z,33.40
2022-11-24T14:42:05.142Z,35.00
2022-11-24T14:44:48.295Z,36.70
2022-11-24T14:47:30.923Z,30.80
2022-11-24T14:50:15.861Z,31.88
2022-11-24T14:55:29.491Z,32.33
2022-11-24T14:58:20.654Z,35.97
2022-11-24T15:01:10.495Z,38.42
2022-11-24T15:03:44.093Z,34.28
2022-11-24T15:06:24.329Z,38.42
2022-11-24T15:08:57.920Z,31.92
2022-11-24T15:11:32.531Z,32.67
2022-11-24T15:14:42.276Z,31.33
2022-11-24T15:17:21.227Z,27.75
2022-11-24T15:19:59.846Z,29.92
2022-11-24T15:22:41.782Z,28.08
2022-11-24T15:25:35.694Z,27.80
2022-11-24T15:28:13.238Z,28.95
2022-11-24T15:30:54.465Z,32.75
2022-11-24T15:33:28.560Z,32.38
2022-11-24T15:36:02.547Z,36.20
2022-11-24T15:38:36.283Z,34.58
2022-11-24T15:41:20.582Z,43.70
2022-11-24T15:46:38.283Z,42.35
2022-11-24T15:49:12.125Z,52.95
2022-11-24T15:51:47.625Z,59.63
2022-11-24T15:54:21.426Z,57.63
2022-11-24T15:56:55.152Z,57.28
2022-11-24T15:59:28.730Z,56.22
2022-11-24T16:02:03.812Z,53.92
2022-11-24T16:04:39.236Z,60.25
2022-11-24T16:07:13.988Z,56.05
2022-11-24T16:09:47.554Z,56.83
2022-11-24T16:12:21.169Z,56.00
2022-11-24T16:14:54.726Z,58.83
2022-11-24T16:17:29.852Z,73.00
2022-11-24T16:20:06.478Z,82.53
2022-11-24T16:22:40.020Z,83.20
2022-11-24T16:25:14.061Z,78.95
2022-11-24T16:27:47.555Z,83.93
2022-11-24T16:30:21.961Z,87.03
2022-11-24T16:32:57.008Z,88.88
2022-11-24T16:35:30.652Z,95.50
2022-11-24T16:38:06.578Z,84.82
2022-11-24T16:40:40.144Z,98.80
2022-11-24T16:43:13.638Z,85.78
2022-11-24T16:45:47.196Z,85.28
2022-11-24T16:48:22.077Z,99.07
2022-11-24T16:50:55.584Z,92.15
2022-11-24T16:53:31.770Z,83.90
2022-11-24T16:56:05.683Z,85.45
2022-11-24T16:58:40.171Z,98.88
2022-11-24T17:01:15.130Z,108.47
2022-11-24T17:03:50.209Z,98.78
2022-11-24T17:06:24.527Z,95.45
2022-11-24T17:08:58.031Z,99.57
2022-11-24T17:11:31.639Z,116.45
2022-11-24T17:14:06.050Z,120.28
2022-11-24T17:16:39.902Z,115.75
2022-11-24T17:19:14.936Z,111.57
2022-11-24T17:21:48.372Z,112.43
2022-11-24T17:24:21.925Z,110.30
2022-11-24T17:26:55.559Z,98.63
2022-11-24T17:29:30.215Z,77.18
2022-11-24T17:32:03.820Z,68.57
2022-11-24T17:34:39.031Z,71.35
2022-11-24T17:37:12.850Z,72.15
2022-11-24T17:39:59.996Z,93.63
2022-11-24T17:42:40.089Z,96.40
2022-11-24T17:45:13.814Z,106.18
2022-11-24T17:47:47.511Z,100.68
2022-11-24T17:50:26.394Z,83.80
2022-11-24T17:53:00.149Z,82.05
2022-11-24T17:55:35.352Z,87.68
2022-11-24T17:58:08.859Z,87.55
2022-11-24T18:00:44.904Z,74.15
2022-11-24T18:03:21.472Z,78.00
2022-11-24T18:05:56.866Z,77.55
2022-11-24T18:08:30.356Z,74.38
2022-11-24T18:11:08.163Z,76.78
2022-11-24T18:13:58.517Z,83.55
2022-11-24T18:16:36.151Z,76.28
2022-11-24T18:19:13.062Z,80.70
2022-11-24T18:21:48.243Z,79.43
2022-11-24T18:24:24.196Z,79.18
2022-11-24T18:26:58.027Z,74.18
2022-11-24T18:29:31.834Z,80.57
2022-11-24T18:32:05.913Z,78.38
2022-11-24T18:34:39.438Z,79.82
2022-11-24T18:37:16.498Z,91.78
2022-11-24T18:39:50.059Z,81.60
2022-11-24T18:42:25.787Z,81.55
2022-11-24T18:44:59.382Z,77.68
2022-11-24T18:47:35.363Z,81.93
2022-11-24T18:50:12.974Z,81.20
2022-11-24T18:52:47.884Z,77.20
2022-11-24T18:55:21.475Z,86.72
2022-11-24T18:57:56.244Z,81.60
2022-11-24T19:00:29.931Z,88.50
2022-11-24T19:03:03.556Z,82.38
2022-11-24T19:05:37.320Z,82.03
2022-11-24T19:08:12.379Z,80.78
2022-11-24T19:10:45.900Z,77.68
2022-11-24T19:13:19.620Z,74.00
2022-11-24T19:15:53.329Z,75.65
2022-11-24T19:18:27.200Z,76.97
2022-11-24T19:21:00.701Z,85.55
2022-11-24T19:23:38.077Z,75.82
2022-11-24T19:26:14.091Z,69.90
2022-11-24T19:28:47.749Z,70.78
2022-11-24T19:31:21.926Z,70.35
2022-11-24T19:33:55.491Z,74.95
2022-11-24T19:36:29.176Z,76.95
2022-11-24T19:39:05.355Z,90.10
2022-11-24T19:41:39.229Z,83.85
2022-11-24T19:44:13.949Z,83.80
2022-11-24T19:46:47.698Z,91.10
2022-11-24T19:49:21.218Z,89.57
2022-11-24T19:51:54.920Z,81.32
2022-11-24T19:54:29.950Z,93.47
2022-11-24T19:57:03.664Z,89.25
2022-11-24T20:02:12.753Z,77.72
2022-11-24T20:04:46.469Z,75.07
2022-11-24T20:07:20.624Z,90.88
2022-11-24T20:09:55.736Z,89.60
2022-11-24T20:12:29.222Z,80.75
2022-11-24T20:15:02.883Z,82.25
2022-11-24T20:17:36.450Z,100.50
2022-11-24T20:20:10.484Z,126.88
2022-11-24T20:25:20.310Z,98.50
2022-11-24T20:27:53.824Z,97.15
2022-11-24T20:30:27.358Z,91.65
2022-11-24T20:33:01.325Z,94.25
2022-11-24T20:38:08.089Z,82.53
2022-11-24T20:40:42.964Z,81.78
2022-11-24T20:43:16.433Z,94.15
2022-11-24T20:45:49.976Z,105.25
2022-11-24T20:48:23.478Z,91.78
2022-11-24T20:51:02.497Z,78.68
2022-11-24T20:53:38.195Z,84.97
2022-11-24T20:56:18.893Z,77.07
2022-11-24T20:58:57.702Z,76.95
2022-11-24T21:01:35.179Z,84.15
2022-11-24T21:04:11.091Z,67.93
2022-11-24T21:06:44.705Z,71.88
2022-11-24T21:09:18.901Z,73.78
2022-11-24T21:11:54.921Z,80.22
2022-11-24T21:14:32.481Z,88.47
2022-11-24T21:17:08.845Z,82.15
2022-11-24T21:19:42.376Z,74.40
2022-11-24T21:22:16.095Z,83.00
2022-11-24T21:24:50.427Z,74.35
2022-11-24T21:27:25.385Z,76.25
2022-11-24T21:29:58.904Z,68.88
2022-11-24T21:32:32.432Z,75.10
2022-11-24T21:35:06.568Z,74.55
2022-11-24T21:37:40.109Z,77.45
2022-11-24T21:40:15.743Z,80.25
2022-11-24T21:42:50.676Z,74.18
2022-11-24T21:45:24.347Z,80.38
2022-11-24T21:47:58.108Z,76.50
2022-11-24T21:50:31.924Z,78.88
2022-11-24T21:53:05.406Z,85.07
2022-11-24T21:55:38.861Z,82.30
2022-11-24T21:58:14.027Z,83.68
2022-11-24T22:00:47.548Z,85.75
2022-11-24T22:03:21.957Z,79.10
2022-11-24T22:05:56.045Z,84.80
2022-11-24T22:08:32.754Z,79.15
2022-11-24T22:16:22.722Z,87.68
2022-11-24T22:18:56.201Z,86.38
2022-11-24T22:21:35.745Z,82.03
2022-11-24T22:24:21.796Z,86.47
2022-11-24T22:26:59.499Z,77.50
2022-11-24T22:29:41.827Z,83.32
2022-11-24T22:32:21.346Z,74.20
2022-11-24T22:34:55.130Z,87.28
2022-11-24T22:37:28.677Z,80.93
2022-11-24T22:40:02.232Z,81.50
2022-11-24T22:42:35.661Z,79.45
2022-11-24T22:45:11.818Z,79.68
2022-11-24T22:47:45.251Z,83.97
2022-11-24T22:50:18.952Z,78.18
2022-11-24T22:52:52.685Z,85.35
2022-11-24T22:55:26.120Z,87.65
2022-11-24T22:57:59.531Z,89.07
2022-11-24T23:00:34.484Z,90.55
2022-11-24T23:03:08.086Z,88.40
2022-11-24T23:05:41.597Z,92.88
2022-11-24T23:08:15.091Z,87.70
2022-11-24T23:10:48.667Z,88.43
2022-11-24T23:13:22.143Z,92.65
2022-11-24T23:16:01.513Z,93.57
2022-11-24T23:18:35.948Z,89.35
2022-11-24T23:21:12.859Z,86.72
2022-11-24T23:23:47.002Z,93.38
2022-11-24T23:26:22.337Z,107.50
2022-11-24T23:28:55.807Z,117.85
2022-11-24T23:31:30.868Z,113.57
2022-11-24T23:34:05.330Z,114.53
2022-11-24T23:36:38.897Z,119.47
2022-11-24T23:39:14.526Z,121.63
2022-11-24T23:41:48.004Z,131.77
2022-11-24T23:44:22.236Z,138.10
2022-11-24T23:46:57.090Z,126.38
2022-11-24T23:49:31.025Z,139.27
2022-11-24T23:52:04.485Z,157.10
2022-11-24T23:54:37.928Z,144.82
2022-11-24T23:57:11.372Z,145.60
2022-11-24T23:59:44.775Z,153.50
